Latest Weather Observations for Port Lincoln Airport

IDS60801

Issued at 7:31 pm CST Tuesday 31 May 2016 (issued every 30 minutes, with the page automatically refreshed every 10 minutes)

About weather observations | Map of weather stations | Latest weather observations for SA | Other Formats
Station Details ID: 018192 Name: PORT LINCOLN AWS Lat: -34.60 Lon: 135.88 Height: 8.5 m
Data from the previous 72 hours. | See also: Recent months at Port Lincoln Airport
Date/Time
CST
Temp
°C
App
Temp
°C
Dew
Point
Rel
Hum
%
Delta-T
°C
Wind Press
QNH
hPa
Press
MSL
hPa
Rain
since 9 am
mm
Dir
 
Spd
km/h
Gust
km/h
Spd
kts
Gust
kts
31/07:30pm 13.5 13.8 10.9 84 1.4 CALM 0 6 0 3 1022.4 1022.4 0.0
31/07:00pm 14.0 14.4 11.2 83 1.5 CALM 0 0 0 0 1022.2 1022.2 0.0
31/06:30pm 14.4 13.5 11.4 82 1.6 NW 7 7 4 4 1022.0 1022.0 0.0
31/06:00pm 15.1 13.8 11.3 78 2.0 NW 9 11 5 6 1021.6 1021.6 0.0
31/05:30pm 15.6 12.8 11.2 75 2.3 WNW 17 20 9 11 1021.3 1021.3 0.0
31/05:00pm 15.7 12.3 10.7 72 2.7 WNW 19 26 10 14 1020.9 1020.9 0.0
31/04:30pm 16.6 12.7 10.9 69 3.0 WNW 22 30 12 16 1020.8 1020.8 0.0
31/04:00pm 17.2 13.5 9.6 61 4.0 WNW 19 26 10 14 1020.5 1020.5 0.0
31/03:30pm 17.7 13.8 8.8 56 4.6 NW 19 26 10 14 1020.3 1020.3 0.0
31/03:00pm 18.5 15.4 10.3 59 4.4 NNW 17 22 9 12 1020.3 1020.3 0.0
31/02:30pm 18.5 15.3 8.5 52 5.2 NNW 15 20 8 11 1020.1 1020.1 0.0
31/02:00pm 18.2 14.6 9.8 58 4.4 NNW 19 28 10 15 1020.2 1020.2 0.0
31/01:30pm 18.1 14.3 9.2 56 4.6 NNW 19 26 10 14 1020.4 1020.4 0.0
31/01:00pm 17.1 14.6 10.9 67 3.3 NNW 15 22 8 12 1020.7 1020.7 0.0
31/12:30pm 17.5 15.0 12.2 71 2.9 NNW 17 24 9 13 1021.0 1021.0 0.0
31/12:00pm 17.8 14.8 11.8 68 3.3 NNW 19 26 10 14 1021.3 1021.3 0.0
31/11:30am 17.8 14.7 12.3 70 3.0 NNW 20 26 11 14 1021.7 1021.7 0.0
31/11:00am 17.7 15.0 13.4 76 2.4 NNW 20 28 11 15 1021.8 1021.8 0.0
31/10:30am 16.6 13.7 12.9 79 2.0 NNW 20 28 11 15 1022.0 1022.0 0.0
31/10:00am 15.6 12.2 12.5 82 1.7 NNW 22 28 12 15 1021.9 1021.9 0.0
31/09:30am 13.3 9.7 11.7 90 0.8 NNW 22 30 12 16 1021.9 1021.9 0.0
31/09:00am 12.9 9.6 11.5 91 0.7 NNW 20 26 11 14 1021.8 1021.8 0.0
31/08:30am 12.3 9.8 11.0 92 0.7 NNW 15 20 8 11 1021.5 1021.5 0.0
31/08:00am 12.7 9.5 11.3 91 0.7 NNW 19 24 10 13 1021.1 1021.1 0.0
31/07:30am 12.5 10.0 11.1 91 0.7 NNW 15 20 8 11 1021.0 1021.0 0.0
31/07:00am 12.1 10.0 11.0 93 0.6 NNW 13 15 7 8 1020.8 1020.8 0.0
31/06:30am 11.8 9.6 10.9 94 0.5 NNW 13 17 7 9 1020.6 1020.6 0.0
31/06:00am 11.6 9.0 10.7 94 0.5 NW 15 17 8 9 1020.4 1020.4 0.0
31/05:30am 10.9 9.0 10.4 97 0.3 WNW 11 13 6 7 1020.3 1020.3 0.0
31/05:00am 11.1 9.6 10.5 96 0.3 WNW 9 11 5 6 1020.0 1020.0 0.0
31/04:30am 11.1 9.6 10.6 97 0.3 NW 9 15 5 8 1019.7 1019.7 0.0
31/04:00am 11.1 8.9 10.8 98 0.2 WNW 13 15 7 8 1019.6 1019.6 0.0
31/03:30am 10.0 7.7 9.1 94 0.4 NNW 11 13 6 7 1019.5 1019.5 0.0
31/03:00am 12.0 11.1 11.2 95 0.4 NNE 7 11 4 6 1019.6 1019.6 0.0
31/02:30am 10.5 9.4 9.9 96 0.3 NE 6 9 3 5 1019.5 1019.5 0.0
31/02:00am 10.7 9.4 10.1 96 0.3 NE 7 9 4 5 1019.3 1019.3 0.0
31/01:30am 11.4 10.4 10.3 93 0.6 E 6 7 3 4 1019.3 1019.3 0.0
31/01:00am 12.3 12.1 10.5 89 0.9 NNE 2 7 1 4 1019.4 1019.4 0.0
31/12:30am 13.1 12.3 11.2 88 1.0 NE 6 9 3 5 1019.5 1019.5 0.0
31/12:00am 13.3 12.5 11.7 90 0.9 NNE 7 11 4 6 1019.5 1019.5 0.0
 
Date/Time
CST
Temp
°C
App
Temp
°C
Dew
Point
Rel
Hum
%
Delta-T
°C
Wind Press
QNH
hPa
Press
MSL
hPa
Rain
since 9 am
mm
Dir
 
Spd
km/h
Gust
km/h
Spd
kts
Gust
kts
30/11:30pm 13.4 13.1 11.6 89 1.0 N 4 7 2 4 1019.5 1019.5 0.0
30/11:00pm 13.8 13.6 11.7 87 1.1 NNE 4 7 2 4 1019.6 1019.6 0.0
30/10:30pm 13.3 12.4 11.5 89 1.0 NNE 7 7 4 4 1019.6 1019.6 0.0
30/10:00pm 14.0 12.8 11.7 86 1.2 N 9 11 5 6 1019.6 1019.6 0.0
30/09:30pm 14.2 13.7 11.9 86 1.2 ENE 6 11 3 6 1019.6 1019.6 0.0
30/09:00pm 14.1 13.0 11.8 86 1.2 NE 9 13 5 7 1019.4 1019.4 0.0
30/08:30pm 13.5 13.1 11.2 86 1.2 E 4 9 2 5 1019.2 1019.2 0.0
30/08:00pm 13.5 12.5 10.9 84 1.4 N 7 11 4 6 1019.0 1019.0 0.0
30/07:30pm 14.1 12.7 10.9 81 1.7 N 9 11 5 6 1018.9 1018.9 0.0
30/07:00pm 14.6 13.2 10.8 78 2.0 NNE 9 13 5 7 1018.5 1018.5 0.0
30/06:30pm 14.4 13.4 11.0 80 1.8 NE 7 9 4 5 1018.1 1018.1 0.0
30/06:00pm 14.9 14.7 10.5 75 2.3 NNW 2 6 1 3 1017.8 1017.8 0.0
30/05:30pm 15.2 15.0 10.6 74 2.4 E 2 9 1 5 1017.5 1017.5 0.0
30/05:00pm 16.0 13.7 10.3 69 3.0 NW 13 17 7 9 1017.1 1017.1 0.0
30/04:30pm 16.9 14.1 11.4 70 3.0 NW 17 26 9 14 1016.7 1016.7 0.0
30/04:00pm 16.9 12.8 11.6 71 2.9 NW 24 35 13 19 1016.3 1016.3 0.0
30/03:30pm 17.6 14.6 12.5 72 2.8 WNW 20 30 11 16 1016.1 1016.1 0.0
30/03:00pm 18.1 14.1 11.7 66 3.5 NW 24 30 13 16 1015.8 1015.8 0.0
30/02:30pm 18.4 14.7 12.6 69 3.2 NW 24 32 13 17 1015.7 1015.7 0.0
30/02:00pm 17.1 13.7 12.4 74 2.6 WNW 22 30 12 16 1015.8 1015.8 0.0
30/01:30pm 17.9 15.4 14.0 78 2.2 WNW 20 28 11 15 1015.7 1015.7 0.0
30/01:00pm 18.3 13.9 11.6 65 3.7 NW 26 32 14 17 1016.0 1016.0 0.0
30/12:30pm 16.4 14.5 12.9 80 1.9 NNW 15 26 8 14 1016.3 1016.3 0.0
30/12:00pm 17.8 14.5 12.9 73 2.7 NNW 22 28 12 15 1016.6 1016.6 0.0
30/11:30am 17.7 14.3 12.6 72 2.8 NNW 22 30 12 16 1016.9 1016.9 0.0
30/11:00am 17.7 15.1 13.8 78 2.2 NNW 20 26 11 14 1017.0 1017.0 0.0
30/10:30am 16.6 13.9 12.8 78 2.1 NNW 19 24 10 13 1017.1 1017.1 0.0
30/10:00am 15.6 12.7 12.2 80 1.9 NNW 19 24 10 13 1017.1 1017.1 0.0
30/09:30am 14.5 11.5 11.8 84 1.5 NNW 19 28 10 15 1017.0 1017.0 0.0
30/09:00am 13.6 10.3 11.0 84 1.4 NNW 19 30 10 16 1016.7 1016.7 1.8
30/08:30am 12.4 10.1 10.3 87 1.1 NW 13 19 7 10 1016.5 1016.5 1.8
30/08:00am 11.0 9.1 8.9 87 1.0 NNW 9 15 5 8 1016.2 1016.2 1.8
30/07:30am 10.9 7.0 8.8 87 1.0 NW 19 20 10 11 1015.7 1015.7 1.8
30/07:00am 11.0 7.4 8.2 83 1.4 NW 17 26 9 14 1015.4 1015.4 1.8
30/06:30am 11.4 7.8 8.4 82 1.5 NW 17 22 9 12 1015.0 1015.0 1.8
30/06:00am 11.7 8.1 8.2 79 1.7 NNW 17 22 9 12 1014.7 1014.7 1.8
30/05:30am 12.3 7.8 8.4 77 1.9 NW 22 28 12 15 1014.4 1014.4 1.8
30/05:00am 12.4 8.3 8.5 77 1.9 NNW 20 28 11 15 1014.1 1014.1 1.8
30/04:30am 12.5 9.1 9.0 79 1.8 NNW 17 24 9 13 1014.0 1014.0 1.8
30/04:00am 13.1 9.3 9.2 77 2.0 NNW 19 22 10 12 1014.0 1014.0 1.8
30/03:30am 13.0 9.1 9.6 80 1.7 NNW 20 30 11 16 1014.1 1014.1 1.8
30/03:00am 13.5 10.9 9.2 75 2.2 NNW 13 17 7 9 1014.3 1014.3 1.6
30/02:30am 13.9 10.9 9.3 74 2.3 N 15 20 8 11 1014.3 1014.3 1.6
30/02:00am 14.0 10.1 9.4 74 2.4 N 20 28 11 15 1014.3 1014.3 1.6
30/01:30am 13.7 9.1 9.7 77 2.1 N 24 32 13 17 1014.6 1014.6 1.6
30/01:00am 12.9 12.5 9.9 82 1.5 NNE 2 9 1 5 1014.7 1014.7 1.6
30/12:30am 12.7 11.0 9.9 83 1.4 NNE 9 13 5 7 1014.8 1014.8 1.4
30/12:00am 13.0 12.0 10.2 83 1.4 NNE 6 9 3 5 1014.8 1014.8 1.4
 
Date/Time
CST
Temp
°C
App
Temp
°C
Dew
Point
Rel
Hum
%
Delta-T
°C
Wind Press
QNH
hPa
Press
MSL
hPa
Rain
since 9 am
mm
Dir
 
Spd
km/h
Gust
km/h
Spd
kts
Gust
kts
29/11:30pm 12.9 11.6 10.1 83 1.4 NNW 7 11 4 6 1014.9 1014.9 1.4
29/11:00pm 13.0 11.1 10.5 85 1.3 NE 11 13 6 7 1015.1 1015.1 1.4
29/10:30pm 13.4 11.9 10.4 82 1.6 NNE 9 13 5 7 1015.6 1015.6 1.4
29/10:00pm 13.2 11.7 10.6 84 1.4 NNE 9 15 5 8 1015.7 1015.7 1.4
29/09:30pm 13.5 11.3 10.7 83 1.5 NNE 13 19 7 10 1015.7 1015.7 1.4
29/09:00pm 13.2 12.1 10.6 84 1.4 N 7 13 4 7 1016.1 1016.1 0.0
29/08:30pm 13.4 12.2 10.2 81 1.7 NNW 7 11 4 6 1015.6 1015.6 0.0
29/08:00pm 12.9 12.3 10.4 85 1.3 WNW 4 7 2 4 1015.4 1015.4 0.0
29/07:30pm 13.7 13.7 11.0 84 1.4 NNE 2 7 1 4 1015.3 1015.3 0.0
29/07:00pm 14.2 11.9 10.6 79 1.9 NE 13 15 7 8 1015.1 1015.1 0.0
29/06:30pm 14.3 14.2 10.7 79 1.9 N 2 11 1 6 1015.2 1015.2 0.0
29/06:00pm 14.9 13.8 10.7 76 2.2 NW 7 7 4 4 1015.0 1015.0 0.0
29/05:30pm 15.2 13.7 10.6 74 2.4 NW 9 11 5 6 1014.9 1014.9 0.0
29/05:00pm 16.2 14.2 10.3 68 3.1 N 11 15 6 8 1014.6 1014.6 0.0
29/04:30pm 17.3 13.9 9.2 59 4.2 N 17 26 9 14 1014.5 1014.5 0.0
29/04:00pm 17.6 13.6 9.2 58 4.4 N 20 28 11 15 1014.4 1014.4 0.0
29/03:30pm 18.7 14.7 8.9 53 5.1 NNW 20 28 11 15 1014.4 1014.4 0.0
29/03:00pm 18.4 14.8 10.5 60 4.2 N 20 28 11 15 1014.4 1014.4 0.0
29/02:30pm 18.5 14.5 9.0 54 5.0 N 20 32 11 17 1014.3 1014.3 0.0
29/02:00pm 18.4 13.7 9.2 55 4.8 N 24 33 13 18 1014.6 1014.6 0.0
29/01:30pm 18.2 13.0 9.0 55 4.8 N 26 35 14 19 1014.8 1014.8 0.0
29/01:00pm 18.5 14.3 9.6 56 4.7 NNW 22 32 12 17 1015.3 1015.3 0.0
29/12:30pm 17.8 12.2 8.9 56 4.6 NNW 28 39 15 21 1015.7 1015.7 0.0
29/12:00pm 17.7 12.4 9.8 60 4.2 N 28 44 15 24 1016.2 1016.2 0.0
29/11:30am 17.3 12.3 9.7 61 4.0 N 26 37 14 20 1016.4 1016.4 0.0
29/11:00am 16.9 12.8 10.1 64 3.6 N 22 30 12 16 1016.7 1016.7 0.0
29/10:30am 15.9 12.0 10.9 72 2.7 N 22 26 12 14 1017.1 1017.1 0.0
29/10:00am 15.1 11.2 10.9 76 2.2 N 22 28 12 15 1017.0 1017.0 0.0
29/09:30am 13.6 10.5 10.4 81 1.7 NNW 17 22 9 12 1017.1 1017.1 0.0
29/09:00am 12.9 10.9 10.1 83 1.4 NNW 11 17 6 9 1017.1 1017.1 0.0
29/08:30am 12.5 10.7 9.3 81 1.6 NE 9 13 5 7 1016.9 1016.9 0.0
29/08:00am 11.8 10.0 9.4 85 1.2 NNE 9 15 5 8 1016.8 1016.8 0.0
29/07:30am 11.3 8.9 8.7 84 1.3 NNE 11 17 6 9 1016.9 1016.9 0.0
29/07:00am 11.4 9.6 8.1 80 1.6 N 7 9 4 5 1016.9 1016.9 0.0
29/06:30am 11.6 9.5 8.3 80 1.6 NNW 9 13 5 7 1016.8 1016.8 0.0
29/06:00am 11.7 9.7 8.7 82 1.5 NNW 9 15 5 8 1016.7 1016.7 0.0
29/05:30am 11.7 10.4 9.3 85 1.2 N 6 9 3 5 1016.7 1016.7 0.0
29/05:00am 12.1 10.9 10.2 88 1.0 NNE 7 11 4 6 1016.6 1016.6 0.0
29/04:30am 12.2 10.6 10.3 88 1.0 NNE 9 11 5 6 1016.8 1016.8 0.0
29/04:00am 11.9 10.6 10.1 89 0.9 NNW 7 9 4 5 1016.8 1016.8 0.0
29/03:30am 11.9 10.6 9.8 87 1.1 NNW 7 9 4 5 1017.0 1017.0 0.0
29/03:00am 12.2 10.9 10.1 87 1.1 NW 7 9 4 5 1017.0 1017.0 0.0
29/02:30am 12.9 10.4 9.7 81 1.6 N 13 17 7 9 1017.2 1017.2 0.0
29/02:00am 12.4 10.1 10.3 87 1.1 N 13 17 7 9 1017.3 1017.3 0.0
29/01:30am 11.8 9.2 9.5 86 1.2 NNW 13 20 7 11 1017.3 1017.3 0.0
29/01:00am 10.8 8.6 9.2 90 0.8 NNW 11 15 6 8 1017.4 1017.4 0.0
29/12:30am 9.1 7.2 7.5 90 0.8 NW 7 9 4 5 1017.5 1017.5 0.0
29/12:00am 9.7 7.9 8.1 90 0.8 NNW 7 11 4 6 1017.9 1017.9 0.0
 
Date/Time
CST
Temp
°C
App
Temp
°C
Dew
Point
Rel
Hum
%
Delta-T
°C
Wind Press
QNH
hPa
Press
MSL
hPa
Rain
since 9 am
mm
Dir
 
Spd
km/h
Gust
km/h
Spd
kts
Gust
kts
28/11:30pm 11.0 9.4 8.8 86 1.1 N 7 9 4 5 1018.1 1018.1 0.0
28/11:00pm 11.4 9.5 9.1 86 1.1 NNW 9 11 5 6 1018.5 1018.5 0.0
28/10:30pm 10.0 7.9 8.3 89 0.8 NNW 9 11 5 6 1018.4 1018.4 0.0
28/10:00pm 10.9 9.4 9.2 89 0.8 NNW 7 9 4 5 1018.4 1018.4 0.0
28/09:30pm 12.6 11.2 9.6 82 1.5 N 7 9 4 5 1018.4 1018.4 0.0
28/09:00pm 11.7 10.4 10.1 90 0.8 NW 7 9 4 5 1018.5 1018.5 0.0
28/08:30pm 11.6 11.7 10.2 91 0.7 CALM 0 0 0 0 1018.6 1018.6 0.0
28/08:00pm 11.3 10.1 9.7 90 0.8 NW 6 9 3 5 1018.3 1018.3 0.0

Other Formats:

Comma delimited format used in spreadsheet applications
http://www.bom.gov.au/fwo/IDS60801/IDS60801.95661.axf

JavaScript Object Notation format (JSON) in row-major order
http://www.bom.gov.au/fwo/IDS60801/IDS60801.95661.json